sensor_id;sensor_type;location;lat;lon;timestamp;P1;durP1;ratioP1;P2;durP2;ratioP2
7939;SDS011;4015;48.888;9.226;2023-05-02T00:02:02;6.73;;;6.03;;
7939;SDS011;4015;48.888;9.226;2023-05-02T00:04:27;7.03;;;6.33;;
7939;SDS011;4015;48.888;9.226;2023-05-02T00:06:53;5.60;;;5.20;;
7939;SDS011;4015;48.888;9.226;2023-05-02T00:09:18;5.90;;;5.40;;
7939;SDS011;4015;48.888;9.226;2023-05-02T00:11:44;7.20;;;5.40;;
7939;SDS011;4015;48.888;9.226;2023-05-02T00:14:09;5.63;;;5.13;;
7939;SDS011;4015;48.888;9.226;2023-05-02T00:16:35;6.40;;;5.80;;
7939;SDS011;4015;48.888;9.226;2023-05-02T00:19:00;7.67;;;6.27;;
7939;SDS011;4015;48.888;9.226;2023-05-02T00:21:25;7.27;;;6.57;;
7939;SDS011;4015;48.888;9.226;2023-05-02T00:23:53;6.90;;;6.20;;
7939;SDS011;4015;48.888;9.226;2023-05-02T00:26:20;6.83;;;6.23;;
7939;SDS011;4015;48.888;9.226;2023-05-02T00:28:46;6.40;;;5.83;;
7939;SDS011;4015;48.888;9.226;2023-05-02T00:31:11;9.17;;;6.20;;
7939;SDS011;4015;48.888;9.226;2023-05-02T00:33:37;7.07;;;6.23;;
7939;SDS011;4015;48.888;9.226;2023-05-02T00:36:02;8.70;;;6.30;;
7939;SDS011;4015;48.888;9.226;2023-05-02T00:38:27;7.10;;;6.40;;
7939;SDS011;4015;48.888;9.226;2023-05-02T00:40:53;6.80;;;6.13;;
7939;SDS011;4015;48.888;9.226;2023-05-02T00:43:18;6.60;;;5.90;;
7939;SDS011;4015;48.888;9.226;2023-05-02T00:45:44;6.70;;;6.10;;
7939;SDS011;4015;48.888;9.226;2023-05-02T00:48:10;6.90;;;6.27;;
7939;SDS011;4015;48.888;9.226;2023-05-02T00:50:36;6.77;;;5.90;;
7939;SDS011;4015;48.888;9.226;2023-05-02T00:53:04;6.33;;;5.73;;
7939;SDS011;4015;48.888;9.226;2023-05-02T00:55:31;7.27;;;6.50;;
7939;SDS011;4015;48.888;9.226;2023-05-02T00:57:58;8.57;;;6.00;;
7939;SDS011;4015;48.888;9.226;2023-05-02T01:00:26;6.60;;;6.00;;
7939;SDS011;4015;48.888;9.226;2023-05-02T01:14:32;9.37;;;7.33;;
7939;SDS011;4015;48.888;9.226;2023-05-02T01:17:03;9.77;;;6.67;;
7939;SDS011;4015;48.888;9.226;2023-05-02T01:19:31;6.87;;;6.00;;
7939;SDS011;4015;48.888;9.226;2023-05-02T01:22:04;7.07;;;6.37;;
7939;SDS011;4015;48.888;9.226;2023-05-02T01:24:34;6.27;;;5.67;;
7939;SDS011;4015;48.888;9.226;2023-05-02T01:27:26;6.73;;;6.07;;
7939;SDS011;4015;48.888;9.226;2023-05-02T01:29:58;7.13;;;6.20;;
7939;SDS011;4015;48.888;9.226;2023-05-02T01:32:26;6.53;;;5.93;;
7939;SDS011;4015;48.888;9.226;2023-05-02T01:34:54;6.10;;;5.60;;
7939;SDS011;4015;48.888;9.226;2023-05-02T01:37:23;5.87;;;5.37;;
7939;SDS011;4015;48.888;9.226;2023-05-02T01:39:50;6.27;;;5.67;;
7939;SDS011;4015;48.888;9.226;2023-05-02T01:42:18;6.83;;;6.23;;
7939;SDS011;4015;48.888;9.226;2023-05-02T01:44:45;6.60;;;6.00;;
7939;SDS011;4015;48.888;9.226;2023-05-02T01:47:12;6.20;;;5.60;;
7939;SDS011;4015;48.888;9.226;2023-05-02T01:49:37;7.67;;;6.30;;
7939;SDS011;4015;48.888;9.226;2023-05-02T01:52:06;7.97;;;6.57;;
7939;SDS011;4015;48.888;9.226;2023-05-02T01:54:35;7.33;;;6.13;;
7939;SDS011;4015;48.888;9.226;2023-05-02T01:57:01;7.63;;;6.93;;
7939;SDS011;4015;48.888;9.226;2023-05-02T01:59:30;8.00;;;6.43;;
7939;SDS011;4015;48.888;9.226;2023-05-02T02:01:58;7.10;;;6.40;;
7939;SDS011;4015;48.888;9.226;2023-05-02T02:04:25;6.97;;;6.27;;
7939;SDS011;4015;48.888;9.226;2023-05-02T02:06:54;7.87;;;6.80;;
7939;SDS011;4015;48.888;9.226;2023-05-02T02:09:24;7.50;;;6.90;;
7939;SDS011;4015;48.888;9.226;2023-05-02T02:12:05;7.97;;;6.67;;
7939;SDS011;4015;48.888;9.226;2023-05-02T02:15:12;6.53;;;5.93;;
7939;SDS011;4015;48.888;9.226;2023-05-02T02:18:04;6.97;;;6.30;;
7939;SDS011;4015;48.888;9.226;2023-05-02T02:20:31;6.47;;;5.97;;
7939;SDS011;4015;48.888;9.226;2023-05-02T02:22:59;7.27;;;6.67;;
7939;SDS011;4015;48.888;9.226;2023-05-02T02:25:27;7.43;;;6.73;;
7939;SDS011;4015;48.888;9.226;2023-05-02T02:27:52;7.77;;;6.97;;
7939;SDS011;4015;48.888;9.226;2023-05-02T02:30:18;7.47;;;6.63;;
7939;SDS011;4015;48.888;9.226;2023-05-02T02:32:43;7.37;;;6.67;;
7939;SDS011;4015;48.888;9.226;2023-05-02T02:35:09;6.80;;;6.20;;
7939;SDS011;4015;48.888;9.226;2023-05-02T02:37:40;6.87;;;6.27;;
7939;SDS011;4015;48.888;9.226;2023-05-02T02:40:18;6.90;;;6.23;;
7939;SDS011;4015;48.888;9.226;2023-05-02T02:45:27;6.73;;;6.07;;
7939;SDS011;4015;48.888;9.226;2023-05-02T02:48:18;7.03;;;6.23;;
7939;SDS011;4015;48.888;9.226;2023-05-02T02:53:16;7.10;;;6.43;;
7939;SDS011;4015;48.888;9.226;2023-05-02T02:55:46;7.53;;;6.30;;
7939;SDS011;4015;48.888;9.226;2023-05-02T03:00:52;6.03;;;5.53;;
7939;SDS011;4015;48.888;9.226;2023-05-02T03:03:19;6.73;;;6.13;;
7939;SDS011;4015;48.888;9.226;2023-05-02T03:05:46;6.47;;;5.87;;
7939;SDS011;4015;48.888;9.226;2023-05-02T03:08:13;8.00;;;6.83;;
7939;SDS011;4015;48.888;9.226;2023-05-02T03:10:38;8.03;;;7.23;;
7939;SDS011;4015;48.888;9.226;2023-05-02T03:13:03;8.10;;;7.40;;
7939;SDS011;4015;48.888;9.226;2023-05-02T03:18:23;7.40;;;6.70;;
7939;SDS011;4015;48.888;9.226;2023-05-02T03:20:49;7.70;;;7.00;;
7939;SDS011;4015;48.888;9.226;2023-05-02T03:23:14;8.03;;;7.00;;
7939;SDS011;4015;48.888;9.226;2023-05-02T03:25:39;7.63;;;6.83;;
7939;SDS011;4015;48.888;9.226;2023-05-02T03:28:05;7.77;;;7.07;;
7939;SDS011;4015;48.888;9.226;2023-05-02T03:30:30;7.77;;;6.40;;
7939;SDS011;4015;48.888;9.226;2023-05-02T03:32:55;7.37;;;6.50;;
7939;SDS011;4015;48.888;9.226;2023-05-02T03:35:20;7.73;;;7.03;;
7939;SDS011;4015;48.888;9.226;2023-05-02T03:37:46;7.53;;;6.83;;
7939;SDS011;4015;48.888;9.226;2023-05-02T03:40:11;8.00;;;7.20;;
7939;SDS011;4015;48.888;9.226;2023-05-02T03:42:37;8.23;;;7.43;;
7939;SDS011;4015;48.888;9.226;2023-05-02T03:45:05;15.27;;;6.80;;
7939;SDS011;4015;48.888;9.226;2023-05-02T03:47:34;8.43;;;7.63;;
7939;SDS011;4015;48.888;9.226;2023-05-02T03:49:59;7.90;;;6.80;;
7939;SDS011;4015;48.888;9.226;2023-05-02T03:52:25;8.50;;;7.70;;
7939;SDS011;4015;48.888;9.226;2023-05-02T03:54:51;7.60;;;6.90;;
7939;SDS011;4015;48.888;9.226;2023-05-02T03:57:16;10.43;;;7.90;;
7939;SDS011;4015;48.888;9.226;2023-05-02T03:59:42;9.07;;;7.50;;
7939;SDS011;4015;48.888;9.226;2023-05-02T04:02:10;8.37;;;7.33;;
7939;SDS011;4015;48.888;9.226;2023-05-02T04:04:35;8.23;;;7.50;;
7939;SDS011;4015;48.888;9.226;2023-05-02T04:07:01;8.47;;;7.43;;
7939;SDS011;4015;48.888;9.226;2023-05-02T04:09:27;8.57;;;7.77;;
7939;SDS011;4015;48.888;9.226;2023-05-02T04:11:52;8.17;;;7.37;;
7939;SDS011;4015;48.888;9.226;2023-05-02T04:14:18;11.63;;;7.83;;
7939;SDS011;4015;48.888;9.226;2023-05-02T04:16:49;8.80;;;7.63;;
7939;SDS011;4015;48.888;9.226;2023-05-02T04:19:16;8.27;;;7.47;;
7939;SDS011;4015;48.888;9.226;2023-05-02T04:21:42;7.67;;;6.90;;
7939;SDS011;4015;48.888;9.226;2023-05-02T04:24:08;8.13;;;7.43;;
7939;SDS011;4015;48.888;9.226;2023-05-02T04:26:34;8.73;;;7.83;;
7939;SDS011;4015;48.888;9.226;2023-05-02T04:28:59;8.27;;;7.47;;
7939;SDS011;4015;48.888;9.226;2023-05-02T04:31:24;8.40;;;7.60;;
7939;SDS011;4015;48.888;9.226;2023-05-02T04:33:50;8.67;;;7.80;;
7939;SDS011;4015;48.888;9.226;2023-05-02T04:36:16;8.10;;;7.30;;
7939;SDS011;4015;48.888;9.226;2023-05-02T04:38:41;7.97;;;7.17;;
7939;SDS011;4015;48.888;9.226;2023-05-02T04:41:06;7.87;;;7.17;;
7939;SDS011;4015;48.888;9.226;2023-05-02T04:43:31;7.30;;;6.70;;
7939;SDS011;4015;48.888;9.226;2023-05-02T04:45:57;7.47;;;6.73;;
7939;SDS011;4015;48.888;9.226;2023-05-02T04:48:22;8.23;;;6.97;;
7939;SDS011;4015;48.888;9.226;2023-05-02T04:50:49;7.60;;;6.90;;
7939;SDS011;4015;48.888;9.226;2023-05-02T04:53:17;7.30;;;6.60;;
7939;SDS011;4015;48.888;9.226;2023-05-02T04:55:42;7.13;;;6.50;;
7939;SDS011;4015;48.888;9.226;2023-05-02T04:58:08;8.10;;;7.40;;
7939;SDS011;4015;48.888;9.226;2023-05-02T05:00:33;7.70;;;7.00;;
7939;SDS011;4015;48.888;9.226;2023-05-02T05:02:58;8.03;;;7.33;;
7939;SDS011;4015;48.888;9.226;2023-05-02T05:05:24;8.17;;;7.47;;
7939;SDS011;4015;48.888;9.226;2023-05-02T05:07:49;9.57;;;6.77;;
7939;SDS011;4015;48.888;9.226;2023-05-02T05:10:16;8.13;;;7.40;;
7939;SDS011;4015;48.888;9.226;2023-05-02T05:12:42;7.57;;;6.87;;
7939;SDS011;4015;48.888;9.226;2023-05-02T05:15:07;7.63;;;6.93;;
7939;SDS011;4015;48.888;9.226;2023-05-02T05:17:33;7.40;;;6.70;;
7939;SDS011;4015;48.888;9.226;2023-05-02T05:19:58;7.73;;;6.97;;
7939;SDS011;4015;48.888;9.226;2023-05-02T05:22:24;7.57;;;6.87;;
7939;SDS011;4015;48.888;9.226;2023-05-02T05:24:50;7.30;;;6.70;;
7939;SDS011;4015;48.888;9.226;2023-05-02T05:27:18;7.80;;;6.93;;
7939;SDS011;4015;48.888;9.226;2023-05-02T05:29:44;7.70;;;7.00;;
7939;SDS011;4015;48.888;9.226;2023-05-02T05:32:10;6.60;;;6.07;;
7939;SDS011;4015;48.888;9.226;2023-05-02T05:34:35;7.73;;;7.03;;
7939;SDS011;4015;48.888;9.226;2023-05-02T05:37:01;6.60;;;6.00;;
7939;SDS011;4015;48.888;9.226;2023-05-02T05:39:26;7.03;;;6.43;;
7939;SDS011;4015;48.888;9.226;2023-05-02T05:41:51;7.13;;;6.43;;
7939;SDS011;4015;48.888;9.226;2023-05-02T05:44:18;7.57;;;6.87;;
7939;SDS011;4015;48.888;9.226;2023-05-02T05:46:46;7.60;;;6.90;;
7939;SDS011;4015;48.888;9.226;2023-05-02T05:49:11;8.40;;;7.43;;
7939;SDS011;4015;48.888;9.226;2023-05-02T05:51:37;7.40;;;6.80;;
7939;SDS011;4015;48.888;9.226;2023-05-02T05:54:02;7.50;;;6.80;;
7939;SDS011;4015;48.888;9.226;2023-05-02T05:56:27;7.90;;;7.20;;
7939;SDS011;4015;48.888;9.226;2023-05-02T05:58:53;8.43;;;6.63;;
7939;SDS011;4015;48.888;9.226;2023-05-02T06:01:18;7.73;;;7.03;;
7939;SDS011;4015;48.888;9.226;2023-05-02T06:03:44;7.77;;;7.07;;
7939;SDS011;4015;48.888;9.226;2023-05-02T06:06:09;8.20;;;7.40;;
7939;SDS011;4015;48.888;9.226;2023-05-02T06:08:35;8.43;;;7.63;;
7939;SDS011;4015;48.888;9.226;2023-05-02T06:11:00;9.03;;;8.23;;
7939;SDS011;4015;48.888;9.226;2023-05-02T06:13:26;9.27;;;8.47;;
7939;SDS011;4015;48.888;9.226;2023-05-02T06:15:51;8.80;;;7.50;;
7939;SDS011;4015;48.888;9.226;2023-05-02T06:18:16;9.67;;;8.40;;
7939;SDS011;4015;48.888;9.226;2023-05-02T06:20:42;10.10;;;8.63;;
7939;SDS011;4015;48.888;9.226;2023-05-02T06:23:07;9.50;;;8.43;;
7939;SDS011;4015;48.888;9.226;2023-05-02T06:25:32;9.17;;;8.27;;
7939;SDS011;4015;48.888;9.226;2023-05-02T06:28:01;10.83;;;8.60;;
7939;SDS011;4015;48.888;9.226;2023-05-02T06:30:26;10.00;;;8.27;;
7939;SDS011;4015;48.888;9.226;2023-05-02T06:32:52;9.70;;;8.80;;
7939;SDS011;4015;48.888;9.226;2023-05-02T06:35:17;9.53;;;8.43;;
7939;SDS011;4015;48.888;9.226;2023-05-02T06:37:42;8.97;;;8.07;;
7939;SDS011;4015;48.888;9.226;2023-05-02T06:40:08;9.90;;;8.90;;
7939;SDS011;4015;48.888;9.226;2023-05-02T06:42:34;9.23;;;8.43;;
7939;SDS011;4015;48.888;9.226;2023-05-02T06:44:59;9.30;;;8.40;;
7939;SDS011;4015;48.888;9.226;2023-05-02T06:47:24;9.90;;;8.97;;
7939;SDS011;4015;48.888;9.226;2023-05-02T06:49:50;10.77;;;9.70;;
7939;SDS011;4015;48.888;9.226;2023-05-02T06:52:16;11.43;;;9.33;;
7939;SDS011;4015;48.888;9.226;2023-05-02T06:54:42;15.27;;;10.30;;
7939;SDS011;4015;48.888;9.226;2023-05-02T06:57:07;10.03;;;9.03;;
7939;SDS011;4015;48.888;9.226;2023-05-02T06:59:33;12.00;;;10.20;;
7939;SDS011;4015;48.888;9.226;2023-05-02T07:01:59;11.23;;;10.07;;
7939;SDS011;4015;48.888;9.226;2023-05-02T07:04:25;9.73;;;8.83;;
7939;SDS011;4015;48.888;9.226;2023-05-02T07:06:51;11.67;;;9.20;;
7939;SDS011;4015;48.888;9.226;2023-05-02T07:09:16;10.17;;;9.13;;
7939;SDS011;4015;48.888;9.226;2023-05-02T07:11:42;11.37;;;9.10;;
7939;SDS011;4015;48.888;9.226;2023-05-02T07:14:07;9.47;;;8.57;;
7939;SDS011;4015;48.888;9.226;2023-05-02T07:16:32;10.37;;;9.37;;
7939;SDS011;4015;48.888;9.226;2023-05-02T07:18:58;10.63;;;9.67;;
7939;SDS011;4015;48.888;9.226;2023-05-02T07:21:24;11.10;;;9.90;;
7939;SDS011;4015;48.888;9.226;2023-05-02T07:23:49;11.90;;;10.10;;
7939;SDS011;4015;48.888;9.226;2023-05-02T07:26:14;10.83;;;9.87;;
7939;SDS011;4015;48.888;9.226;2023-05-02T07:28:40;11.60;;;10.43;;
7939;SDS011;4015;48.888;9.226;2023-05-02T07:31:05;10.80;;;9.80;;
7939;SDS011;4015;48.888;9.226;2023-05-02T07:33:30;10.87;;;9.77;;
7939;SDS011;4015;48.888;9.226;2023-05-02T07:35:55;11.57;;;10.47;;
7939;SDS011;4015;48.888;9.226;2023-05-02T07:38:21;11.23;;;10.10;;
7939;SDS011;4015;48.888;9.226;2023-05-02T07:40:46;12.57;;;11.07;;
7939;SDS011;4015;48.888;9.226;2023-05-02T07:43:12;11.83;;;10.20;;
7939;SDS011;4015;48.888;9.226;2023-05-02T07:45:38;12.07;;;10.90;;
7939;SDS011;4015;48.888;9.226;2023-05-02T07:48:03;12.40;;;11.17;;
7939;SDS011;4015;48.888;9.226;2023-05-02T07:50:29;13.07;;;11.67;;
7939;SDS011;4015;48.888;9.226;2023-05-02T07:52:54;13.53;;;12.23;;
7939;SDS011;4015;48.888;9.226;2023-05-02T07:55:20;13.83;;;12.43;;
7939;SDS011;4015;48.888;9.226;2023-05-02T07:57:46;18.97;;;12.00;;
7939;SDS011;4015;48.888;9.226;2023-05-02T08:00:11;14.87;;;13.37;;
7939;SDS011;4015;48.888;9.226;2023-05-02T08:02:38;14.80;;;13.33;;
7939;SDS011;4015;48.888;9.226;2023-05-02T08:05:04;15.83;;;14.13;;
7939;SDS011;4015;48.888;9.226;2023-05-02T08:07:30;19.17;;;16.23;;
7939;SDS011;4015;48.888;9.226;2023-05-02T08:09:56;16.30;;;14.53;;
7939;SDS011;4015;48.888;9.226;2023-05-02T08:12:21;15.20;;;13.70;;
7939;SDS011;4015;48.888;9.226;2023-05-02T08:14:46;15.17;;;12.63;;
7939;SDS011;4015;48.888;9.226;2023-05-02T08:17:12;15.00;;;13.50;;
7939;SDS011;4015;48.888;9.226;2023-05-02T08:19:37;15.50;;;13.93;;
7939;SDS011;4015;48.888;9.226;2023-05-02T08:22:02;14.98;;;13.43;;
7939;SDS011;4015;48.888;9.226;2023-05-02T08:24:28;16.45;;;13.38;;
7939;SDS011;4015;48.888;9.226;2023-05-02T08:26:54;15.82;;;14.25;;
7939;SDS011;4015;48.888;9.226;2023-05-02T08:29:20;14.85;;;13.45;;
7939;SDS011;4015;48.888;9.226;2023-05-02T08:31:45;14.82;;;13.23;;
7939;SDS011;4015;48.888;9.226;2023-05-02T08:34:11;14.65;;;13.15;;
7939;SDS011;4015;48.888;9.226;2023-05-02T08:36:36;16.25;;;14.15;;
7939;SDS011;4015;48.888;9.226;2023-05-02T08:39:01;15.75;;;14.15;;
7939;SDS011;4015;48.888;9.226;2023-05-02T08:41:27;15.98;;;14.32;;
7939;SDS011;4015;48.888;9.226;2023-05-02T08:43:55;15.48;;;13.98;;
7939;SDS011;4015;48.888;9.226;2023-05-02T08:46:20;15.93;;;14.27;;
7939;SDS011;4015;48.888;9.226;2023-05-02T08:48:47;16.48;;;14.57;;
7939;SDS011;4015;48.888;9.226;2023-05-02T08:51:14;16.05;;;14.50;;
7939;SDS011;4015;48.888;9.226;2023-05-02T08:53:41;16.98;;;15.38;;
7939;SDS011;4015;48.888;9.226;2023-05-02T08:56:07;16.90;;;15.20;;
7939;SDS011;4015;48.888;9.226;2023-05-02T08:58:34;17.40;;;15.57;;
7939;SDS011;4015;48.888;9.226;2023-05-02T09:01:01;16.23;;;14.52;;
7939;SDS011;4015;48.888;9.226;2023-05-02T09:03:34;15.98;;;14.38;;
7939;SDS011;4015;48.888;9.226;2023-05-02T09:06:08;16.42;;;14.77;;
7939;SDS011;4015;48.888;9.226;2023-05-02T09:08:36;16.02;;;14.38;;
7939;SDS011;4015;48.888;9.226;2023-05-02T09:11:02;16.33;;;14.73;;
7939;SDS011;4015;48.888;9.226;2023-05-02T09:16:03;16.27;;;14.63;;
7939;SDS011;4015;48.888;9.226;2023-05-02T09:18:31;15.68;;;14.20;;
7939;SDS011;4015;48.888;9.226;2023-05-02T09:21:03;16.23;;;14.63;;
7939;SDS011;4015;48.888;9.226;2023-05-02T09:23:42;15.63;;;14.02;;
7939;SDS011;4015;48.888;9.226;2023-05-02T09:26:11;15.38;;;13.90;;
7939;SDS011;4015;48.888;9.226;2023-05-02T09:28:44;15.35;;;13.70;;
7939;SDS011;4015;48.888;9.226;2023-05-02T09:31:20;17.90;;;16.10;;
7939;SDS011;4015;48.888;9.226;2023-05-02T09:33:47;16.80;;;15.27;;
7939;SDS011;4015;48.888;9.226;2023-05-02T09:36:14;17.15;;;15.45;;
7939;SDS011;4015;48.888;9.226;2023-05-02T09:38:41;15.88;;;14.27;;
7939;SDS011;4015;48.888;9.226;2023-05-02T09:41:07;16.13;;;14.63;;
7939;SDS011;4015;48.888;9.226;2023-05-02T09:43:33;17.35;;;15.63;;
7939;SDS011;4015;48.888;9.226;2023-05-02T09:45:59;16.50;;;14.90;;
7939;SDS011;4015;48.888;9.226;2023-05-02T09:48:27;16.75;;;14.32;;
7939;SDS011;4015;48.888;9.226;2023-05-02T09:50:54;16.08;;;14.48;;
7939;SDS011;4015;48.888;9.226;2023-05-02T09:53:20;16.35;;;14.90;;
7939;SDS011;4015;48.888;9.226;2023-05-02T09:55:46;17.10;;;15.38;;
7939;SDS011;4015;48.888;9.226;2023-05-02T09:58:21;16.95;;;15.35;;
7939;SDS011;4015;48.888;9.226;2023-05-02T10:00:47;18.80;;;16.90;;
7939;SDS011;4015;48.888;9.226;2023-05-02T10:03:15;18.65;;;16.95;;
7939;SDS011;4015;48.888;9.226;2023-05-02T10:05:41;18.95;;;17.05;;
7939;SDS011;4015;48.888;9.226;2023-05-02T10:08:08;17.58;;;15.68;;
7939;SDS011;4015;48.888;9.226;2023-05-02T10:10:38;15.95;;;14.45;;
7939;SDS011;4015;48.888;9.226;2023-05-02T10:13:07;16.83;;;15.23;;
7939;SDS011;4015;48.888;9.226;2023-05-02T10:15:33;15.93;;;14.20;;
7939;SDS011;4015;48.888;9.226;2023-05-02T10:18:02;16.15;;;14.75;;
7939;SDS011;4015;48.888;9.226;2023-05-02T10:20:37;15.57;;;14.02;;
7939;SDS011;4015;48.888;9.226;2023-05-02T10:23:15;15.00;;;13.45;;
7939;SDS011;4015;48.888;9.226;2023-05-02T10:25:41;14.25;;;12.98;;
7939;SDS011;4015;48.888;9.226;2023-05-02T10:28:08;18.85;;;14.38;;
7939;SDS011;4015;48.888;9.226;2023-05-02T10:30:34;14.70;;;13.20;;
7939;SDS011;4015;48.888;9.226;2023-05-02T10:33:00;13.70;;;12.00;;
7939;SDS011;4015;48.888;9.226;2023-05-02T10:35:27;14.05;;;12.75;;
7939;SDS011;4015;48.888;9.226;2023-05-02T10:37:54;15.05;;;13.63;;
7939;SDS011;4015;48.888;9.226;2023-05-02T10:40:21;13.55;;;12.30;;
7939;SDS011;4015;48.888;9.226;2023-05-02T10:42:47;14.52;;;13.13;;
7939;SDS011;4015;48.888;9.226;2023-05-02T10:45:31;14.20;;;12.90;;
7939;SDS011;4015;48.888;9.226;2023-05-02T10:53:30;13.43;;;12.23;;
7939;SDS011;4015;48.888;9.226;2023-05-02T10:56:13;12.90;;;11.70;;
7939;SDS011;4015;48.888;9.226;2023-05-02T10:58:41;14.23;;;12.82;;
7939;SDS011;4015;48.888;9.226;2023-05-02T11:03:58;13.15;;;11.85;;
7939;SDS011;4015;48.888;9.226;2023-05-02T11:06:27;15.13;;;13.63;;
7939;SDS011;4015;48.888;9.226;2023-05-02T11:11:43;13.98;;;12.68;;
7939;SDS011;4015;48.888;9.226;2023-05-02T11:14:09;13.82;;;12.38;;
7939;SDS011;4015;48.888;9.226;2023-05-02T11:19:28;15.90;;;12.93;;
7939;SDS011;4015;48.888;9.226;2023-05-02T11:24:41;17.05;;;13.20;;
7939;SDS011;4015;48.888;9.226;2023-05-02T11:29:55;14.45;;;12.95;;
7939;SDS011;4015;48.888;9.226;2023-05-02T11:32:21;15.07;;;13.65;;
7939;SDS011;4015;48.888;9.226;2023-05-02T11:34:47;16.00;;;14.40;;
7939;SDS011;4015;48.888;9.226;2023-05-02T11:37:16;17.35;;;15.73;;
7939;SDS011;4015;48.888;9.226;2023-05-02T11:39:43;13.77;;;12.43;;
7939;SDS011;4015;48.888;9.226;2023-05-02T11:42:09;14.93;;;13.50;;
7939;SDS011;4015;48.888;9.226;2023-05-02T11:44:53;13.95;;;12.75;;
7939;SDS011;4015;48.888;9.226;2023-05-02T11:47:20;13.68;;;12.48;;
7939;SDS011;4015;48.888;9.226;2023-05-02T11:49:46;14.00;;;12.38;;
7939;SDS011;4015;48.888;9.226;2023-05-02T11:52:11;15.75;;;14.32;;
7939;SDS011;4015;48.888;9.226;2023-05-02T11:54:37;16.02;;;14.65;;
7939;SDS011;4015;48.888;9.226;2023-05-02T11:57:02;18.80;;;17.00;;
7939;SDS011;4015;48.888;9.226;2023-05-02T11:59:27;20.17;;;18.30;;
7939;SDS011;4015;48.888;9.226;2023-05-02T12:01:53;20.08;;;18.08;;
7939;SDS011;4015;48.888;9.226;2023-05-02T12:04:19;19.92;;;18.13;;
7939;SDS011;4015;48.888;9.226;2023-05-02T12:06:54;17.75;;;16.05;;
7939;SDS011;4015;48.888;9.226;2023-05-02T12:09:21;16.02;;;14.43;;
7939;SDS011;4015;48.888;9.226;2023-05-02T12:11:50;16.15;;;14.65;;
7939;SDS011;4015;48.888;9.226;2023-05-02T12:14:16;16.23;;;14.63;;
7939;SDS011;4015;48.888;9.226;2023-05-02T12:16:41;17.90;;;16.10;;
7939;SDS011;4015;48.888;9.226;2023-05-02T12:19:07;18.15;;;16.45;;
7939;SDS011;4015;48.888;9.226;2023-05-02T12:21:32;19.13;;;17.00;;
7939;SDS011;4015;48.888;9.226;2023-05-02T12:23:59;19.70;;;17.88;;
7939;SDS011;4015;48.888;9.226;2023-05-02T12:26:26;17.45;;;15.75;;
7939;SDS011;4015;48.888;9.226;2023-05-02T12:28:56;19.08;;;17.15;;
7939;SDS011;4015;48.888;9.226;2023-05-02T12:31:26;18.45;;;16.55;;
7939;SDS011;4015;48.888;9.226;2023-05-02T12:33:54;18.98;;;17.15;;
7939;SDS011;4015;48.888;9.226;2023-05-02T12:36:21;19.02;;;17.13;;
7939;SDS011;4015;48.888;9.226;2023-05-02T12:38:51;21.02;;;18.77;;
7939;SDS011;4015;48.888;9.226;2023-05-02T12:41:18;19.70;;;17.70;;
7939;SDS011;4015;48.888;9.226;2023-05-02T12:44:01;20.95;;;18.13;;
7939;SDS011;4015;48.888;9.226;2023-05-02T12:46:27;17.80;;;15.93;;
7939;SDS011;4015;48.888;9.226;2023-05-02T12:49:02;16.67;;;14.98;;
7939;SDS011;4015;48.888;9.226;2023-05-02T12:51:29;16.50;;;14.82;;
7939;SDS011;4015;48.888;9.226;2023-05-02T12:53:56;15.30;;;13.70;;
7939;SDS011;4015;48.888;9.226;2023-05-02T12:56:22;14.65;;;13.15;;
7939;SDS011;4015;48.888;9.226;2023-05-02T12:58:48;15.45;;;13.80;;
7939;SDS011;4015;48.888;9.226;2023-05-02T13:01:14;15.75;;;13.40;;
7939;SDS011;4015;48.888;9.226;2023-05-02T13:03:41;14.05;;;12.40;;
7939;SDS011;4015;48.888;9.226;2023-05-02T13:06:07;13.07;;;11.73;;
7939;SDS011;4015;48.888;9.226;2023-05-02T13:08:32;12.93;;;11.57;;
7939;SDS011;4015;48.888;9.226;2023-05-02T13:10:59;12.82;;;11.38;;
7939;SDS011;4015;48.888;9.226;2023-05-02T13:13:25;13.10;;;11.75;;
7939;SDS011;4015;48.888;9.226;2023-05-02T13:15:50;11.98;;;10.77;;
7939;SDS011;4015;48.888;9.226;2023-05-02T13:18:16;11.93;;;10.73;;
7939;SDS011;4015;48.888;9.226;2023-05-02T13:20:41;12.75;;;10.55;;
7939;SDS011;4015;48.888;9.226;2023-05-02T13:23:06;12.25;;;11.00;;
7939;SDS011;4015;48.888;9.226;2023-05-02T13:25:31;10.63;;;9.63;;
7939;SDS011;4015;48.888;9.226;2023-05-02T13:27:57;10.95;;;9.85;;
7939;SDS011;4015;48.888;9.226;2023-05-02T13:30:22;10.63;;;9.43;;
7939;SDS011;4015;48.888;9.226;2023-05-02T13:32:48;11.65;;;10.35;;
7939;SDS011;4015;48.888;9.226;2023-05-02T13:35:13;15.88;;;12.18;;
7939;SDS011;4015;48.888;9.226;2023-05-02T13:37:39;13.07;;;11.77;;
7939;SDS011;4015;48.888;9.226;2023-05-02T13:40:06;15.27;;;11.70;;
7939;SDS011;4015;48.888;9.226;2023-05-02T13:42:31;12.63;;;11.45;;
7939;SDS011;4015;48.888;9.226;2023-05-02T13:44:57;12.15;;;10.95;;
7939;SDS011;4015;48.888;9.226;2023-05-02T13:47:22;11.60;;;10.40;;
7939;SDS011;4015;48.888;9.226;2023-05-02T13:49:48;12.68;;;11.45;;
7939;SDS011;4015;48.888;9.226;2023-05-02T13:52:14;12.65;;;11.35;;
7939;SDS011;4015;48.888;9.226;2023-05-02T13:54:39;12.75;;;10.00;;
7939;SDS011;4015;48.888;9.226;2023-05-02T13:57:05;13.55;;;11.10;;
7939;SDS011;4015;48.888;9.226;2023-05-02T13:59:30;12.73;;;11.48;;
7939;SDS011;4015;48.888;9.226;2023-05-02T14:01:55;11.95;;;10.23;;
7939;SDS011;4015;48.888;9.226;2023-05-02T14:04:21;13.05;;;10.25;;
7939;SDS011;4015;48.888;9.226;2023-05-02T14:06:46;11.57;;;10.38;;
7939;SDS011;4015;48.888;9.226;2023-05-02T14:09:11;10.20;;;9.20;;
7939;SDS011;4015;48.888;9.226;2023-05-02T14:11:37;10.98;;;9.85;;
7939;SDS011;4015;48.888;9.226;2023-05-02T14:14:03;11.75;;;9.57;;
7939;SDS011;4015;48.888;9.226;2023-05-02T14:16:28;12.18;;;10.90;;
7939;SDS011;4015;48.888;9.226;2023-05-02T14:18:54;10.93;;;9.82;;
7939;SDS011;4015;48.888;9.226;2023-05-02T14:21:19;12.15;;;10.80;;
7939;SDS011;4015;48.888;9.226;2023-05-02T14:23:45;12.05;;;10.13;;
7939;SDS011;4015;48.888;9.226;2023-05-02T14:26:10;11.10;;;10.00;;
7939;SDS011;4015;48.888;9.226;2023-05-02T14:28:36;8.00;;;7.30;;
7939;SDS011;4015;48.888;9.226;2023-05-02T14:31:03;8.23;;;7.43;;
7939;SDS011;4015;48.888;9.226;2023-05-02T14:33:28;8.63;;;6.60;;
7939;SDS011;4015;48.888;9.226;2023-05-02T14:35:54;7.97;;;6.93;;
7939;SDS011;4015;48.888;9.226;2023-05-02T14:38:19;7.57;;;6.70;;
7939;SDS011;4015;48.888;9.226;2023-05-02T14:40:44;7.82;;;6.70;;
7939;SDS011;4015;48.888;9.226;2023-05-02T14:43:10;9.45;;;7.47;;
7939;SDS011;4015;48.888;9.226;2023-05-02T14:45:36;11.82;;;8.70;;
7939;SDS011;4015;48.888;9.226;2023-05-02T14:48:01;8.18;;;7.28;;
7939;SDS011;4015;48.888;9.226;2023-05-02T14:50:26;8.27;;;6.85;;
7939;SDS011;4015;48.888;9.226;2023-05-02T14:52:52;7.25;;;6.55;;
7939;SDS011;4015;48.888;9.226;2023-05-02T14:55:17;7.20;;;5.70;;
7939;SDS011;4015;48.888;9.226;2023-05-02T14:57:43;7.63;;;6.82;;
7939;SDS011;4015;48.888;9.226;2023-05-02T15:00:08;8.50;;;5.95;;
7939;SDS011;4015;48.888;9.226;2023-05-02T15:02:34;5.63;;;5.00;;
7939;SDS011;4015;48.888;9.226;2023-05-02T15:05:00;5.60;;;4.70;;
7939;SDS011;4015;48.888;9.226;2023-05-02T15:07:26;5.75;;;5.22;;
7939;SDS011;4015;48.888;9.226;2023-05-02T15:09:52;8.25;;;5.97;;
7939;SDS011;4015;48.888;9.226;2023-05-02T15:12:18;5.55;;;5.00;;
7939;SDS011;4015;48.888;9.226;2023-05-02T15:14:43;7.07;;;5.53;;
7939;SDS011;4015;48.888;9.226;2023-05-02T15:17:08;5.57;;;4.65;;
7939;SDS011;4015;48.888;9.226;2023-05-02T15:19:34;11.07;;;9.98;;
7939;SDS011;4015;48.888;9.226;2023-05-02T15:22:00;4.88;;;4.30;;
7939;SDS011;4015;48.888;9.226;2023-05-02T15:24:25;6.10;;;3.95;;
7939;SDS011;4015;48.888;9.226;2023-05-02T15:26:51;3.65;;;3.35;;
7939;SDS011;4015;48.888;9.226;2023-05-02T15:29:17;4.43;;;3.22;;
7939;SDS011;4015;48.888;9.226;2023-05-02T15:31:42;5.15;;;3.13;;
7939;SDS011;4015;48.888;9.226;2023-05-02T15:34:08;4.63;;;2.95;;
7939;SDS011;4015;48.888;9.226;2023-05-02T15:36:33;3.17;;;2.92;;
7939;SDS011;4015;48.888;9.226;2023-05-02T15:39:05;2.75;;;2.47;;
7939;SDS011;4015;48.888;9.226;2023-05-02T15:41:31;3.80;;;2.50;;
7939;SDS011;4015;48.888;9.226;2023-05-02T15:43:57;2.10;;;1.92;;
7939;SDS011;4015;48.888;9.226;2023-05-02T15:46:23;2.50;;;2.28;;